sensor_id;sensor_type;location;lat;lon;timestamp;P1;durP1;ratioP1;P2;durP2;ratioP2
9759;SDS011;4919;48.792;9.202;2022-07-09T00:01:04;4.03;;;2.87;;
9759;SDS011;4919;48.792;9.202;2022-07-09T00:03:31;6.90;;;2.70;;
9759;SDS011;4919;48.792;9.202;2022-07-09T00:05:58;6.13;;;2.90;;
9759;SDS011;4919;48.792;9.202;2022-07-09T00:08:25;5.57;;;2.97;;
9759;SDS011;4919;48.792;9.202;2022-07-09T00:10:52;4.03;;;2.60;;
9759;SDS011;4919;48.792;9.202;2022-07-09T00:13:18;4.70;;;2.90;;
9759;SDS011;4919;48.792;9.202;2022-07-09T00:15:45;5.83;;;2.67;;
9759;SDS011;4919;48.792;9.202;2022-07-09T00:18:12;5.20;;;2.73;;
9759;SDS011;4919;48.792;9.202;2022-07-09T00:20:39;5.33;;;2.80;;
9759;SDS011;4919;48.792;9.202;2022-07-09T00:23:06;6.67;;;2.80;;
9759;SDS011;4919;48.792;9.202;2022-07-09T00:25:33;5.77;;;2.70;;
9759;SDS011;4919;48.792;9.202;2022-07-09T00:28:00;6.17;;;2.70;;
9759;SDS011;4919;48.792;9.202;2022-07-09T00:30:27;5.10;;;2.73;;
9759;SDS011;4919;48.792;9.202;2022-07-09T00:32:54;6.00;;;2.60;;
9759;SDS011;4919;48.792;9.202;2022-07-09T00:35:21;6.27;;;2.83;;
9759;SDS011;4919;48.792;9.202;2022-07-09T00:37:48;7.73;;;2.40;;
9759;SDS011;4919;48.792;9.202;2022-07-09T00:40:14;5.70;;;2.30;;
9759;SDS011;4919;48.792;9.202;2022-07-09T00:42:41;5.07;;;2.73;;
9759;SDS011;4919;48.792;9.202;2022-07-09T00:45:08;6.33;;;3.23;;
9759;SDS011;4919;48.792;9.202;2022-07-09T00:47:35;5.63;;;2.43;;
9759;SDS011;4919;48.792;9.202;2022-07-09T00:50:02;5.37;;;2.90;;
9759;SDS011;4919;48.792;9.202;2022-07-09T00:52:30;12.20;;;3.43;;
9759;SDS011;4919;48.792;9.202;2022-07-09T00:54:59;5.83;;;2.63;;
9759;SDS011;4919;48.792;9.202;2022-07-09T00:57:27;5.80;;;2.50;;
9759;SDS011;4919;48.792;9.202;2022-07-09T00:59:55;7.40;;;3.00;;
9759;SDS011;4919;48.792;9.202;2022-07-09T01:02:24;4.60;;;3.00;;
9759;SDS011;4919;48.792;9.202;2022-07-09T01:04:51;4.60;;;2.97;;
9759;SDS011;4919;48.792;9.202;2022-07-09T01:07:18;9.00;;;2.83;;
9759;SDS011;4919;48.792;9.202;2022-07-09T01:09:45;6.07;;;2.87;;
9759;SDS011;4919;48.792;9.202;2022-07-09T01:12:12;7.10;;;2.67;;
9759;SDS011;4919;48.792;9.202;2022-07-09T01:14:39;6.90;;;3.07;;
9759;SDS011;4919;48.792;9.202;2022-07-09T01:17:06;5.03;;;2.80;;
9759;SDS011;4919;48.792;9.202;2022-07-09T01:19:33;8.33;;;3.60;;
9759;SDS011;4919;48.792;9.202;2022-07-09T01:22:00;5.83;;;2.97;;
9759;SDS011;4919;48.792;9.202;2022-07-09T01:24:32;7.43;;;3.07;;
9759;SDS011;4919;48.792;9.202;2022-07-09T01:27:00;3.90;;;2.80;;
9759;SDS011;4919;48.792;9.202;2022-07-09T01:29:27;10.40;;;3.10;;
9759;SDS011;4919;48.792;9.202;2022-07-09T01:31:54;5.50;;;2.97;;
9759;SDS011;4919;48.792;9.202;2022-07-09T01:34:21;9.73;;;3.60;;
9759;SDS011;4919;48.792;9.202;2022-07-09T01:36:48;7.47;;;3.37;;
9759;SDS011;4919;48.792;9.202;2022-07-09T01:39:15;7.07;;;3.17;;
9759;SDS011;4919;48.792;9.202;2022-07-09T01:41:42;6.30;;;3.00;;
9759;SDS011;4919;48.792;9.202;2022-07-09T01:44:09;8.33;;;3.23;;
9759;SDS011;4919;48.792;9.202;2022-07-09T01:46:35;8.07;;;3.43;;
9759;SDS011;4919;48.792;9.202;2022-07-09T01:49:03;8.03;;;3.40;;
9759;SDS011;4919;48.792;9.202;2022-07-09T01:51:33;7.63;;;3.40;;
9759;SDS011;4919;48.792;9.202;2022-07-09T01:54:01;6.53;;;3.00;;
9759;SDS011;4919;48.792;9.202;2022-07-09T01:56:29;6.03;;;3.17;;
9759;SDS011;4919;48.792;9.202;2022-07-09T01:58:55;10.30;;;3.60;;
9759;SDS011;4919;48.792;9.202;2022-07-09T02:01:22;8.77;;;3.53;;
9759;SDS011;4919;48.792;9.202;2022-07-09T02:03:49;9.73;;;3.67;;
9759;SDS011;4919;48.792;9.202;2022-07-09T02:06:16;9.90;;;3.30;;
9759;SDS011;4919;48.792;9.202;2022-07-09T02:08:43;7.70;;;3.30;;
9759;SDS011;4919;48.792;9.202;2022-07-09T02:11:10;7.33;;;3.30;;
9759;SDS011;4919;48.792;9.202;2022-07-09T02:13:37;8.83;;;3.50;;
9759;SDS011;4919;48.792;9.202;2022-07-09T02:16:04;7.90;;;3.50;;
9759;SDS011;4919;48.792;9.202;2022-07-09T02:18:32;8.37;;;3.50;;
9759;SDS011;4919;48.792;9.202;2022-07-09T02:20:59;10.27;;;3.70;;
9759;SDS011;4919;48.792;9.202;2022-07-09T02:23:26;9.17;;;3.80;;
9759;SDS011;4919;48.792;9.202;2022-07-09T02:25:53;10.63;;;3.40;;
9759;SDS011;4919;48.792;9.202;2022-07-09T02:28:20;10.07;;;4.20;;
9759;SDS011;4919;48.792;9.202;2022-07-09T02:30:47;9.33;;;3.77;;
9759;SDS011;4919;48.792;9.202;2022-07-09T02:33:14;8.47;;;3.67;;
9759;SDS011;4919;48.792;9.202;2022-07-09T02:35:40;8.70;;;3.50;;
9759;SDS011;4919;48.792;9.202;2022-07-09T02:38:09;9.93;;;4.00;;
9759;SDS011;4919;48.792;9.202;2022-07-09T02:40:36;6.77;;;3.73;;
9759;SDS011;4919;48.792;9.202;2022-07-09T02:43:02;7.90;;;4.17;;
9759;SDS011;4919;48.792;9.202;2022-07-09T02:45:29;9.30;;;4.40;;
9759;SDS011;4919;48.792;9.202;2022-07-09T02:47:56;9.47;;;4.40;;
9759;SDS011;4919;48.792;9.202;2022-07-09T02:50:23;9.20;;;4.83;;
9759;SDS011;4919;48.792;9.202;2022-07-09T02:52:50;7.43;;;4.80;;
9759;SDS011;4919;48.792;9.202;2022-07-09T02:55:17;8.90;;;4.83;;
9759;SDS011;4919;48.792;9.202;2022-07-09T02:57:44;10.53;;;4.80;;
9759;SDS011;4919;48.792;9.202;2022-07-09T03:00:13;9.70;;;4.80;;
9759;SDS011;4919;48.792;9.202;2022-07-09T03:02:41;11.30;;;5.07;;
9759;SDS011;4919;48.792;9.202;2022-07-09T03:05:09;10.13;;;4.97;;
9759;SDS011;4919;48.792;9.202;2022-07-09T03:07:36;7.87;;;4.63;;
9759;SDS011;4919;48.792;9.202;2022-07-09T03:10:03;10.80;;;5.40;;
9759;SDS011;4919;48.792;9.202;2022-07-09T03:12:30;9.37;;;4.77;;
9759;SDS011;4919;48.792;9.202;2022-07-09T03:14:57;10.40;;;5.13;;
9759;SDS011;4919;48.792;9.202;2022-07-09T03:17:24;7.27;;;5.03;;
9759;SDS011;4919;48.792;9.202;2022-07-09T03:19:53;11.23;;;5.23;;
9759;SDS011;4919;48.792;9.202;2022-07-09T03:22:20;11.83;;;4.73;;
9759;SDS011;4919;48.792;9.202;2022-07-09T03:24:46;9.37;;;4.90;;
9759;SDS011;4919;48.792;9.202;2022-07-09T03:27:13;10.83;;;5.07;;
9759;SDS011;4919;48.792;9.202;2022-07-09T03:29:40;9.57;;;4.90;;
9759;SDS011;4919;48.792;9.202;2022-07-09T03:32:07;10.40;;;4.90;;
9759;SDS011;4919;48.792;9.202;2022-07-09T03:34:34;8.67;;;4.77;;
9759;SDS011;4919;48.792;9.202;2022-07-09T03:37:01;7.40;;;4.80;;
9759;SDS011;4919;48.792;9.202;2022-07-09T03:39:28;9.27;;;4.70;;
9759;SDS011;4919;48.792;9.202;2022-07-09T03:41:55;10.67;;;4.77;;
9759;SDS011;4919;48.792;9.202;2022-07-09T03:44:22;11.90;;;4.63;;
9759;SDS011;4919;48.792;9.202;2022-07-09T03:46:49;8.97;;;4.80;;
9759;SDS011;4919;48.792;9.202;2022-07-09T03:49:15;10.93;;;5.33;;
9759;SDS011;4919;48.792;9.202;2022-07-09T03:51:42;11.67;;;4.60;;
9759;SDS011;4919;48.792;9.202;2022-07-09T03:54:30;8.97;;;4.97;;
9759;SDS011;4919;48.792;9.202;2022-07-09T03:56:57;9.30;;;4.73;;
9759;SDS011;4919;48.792;9.202;2022-07-09T03:59:23;9.07;;;4.97;;
9759;SDS011;4919;48.792;9.202;2022-07-09T04:01:50;10.37;;;5.10;;
9759;SDS011;4919;48.792;9.202;2022-07-09T04:04:17;9.03;;;5.00;;
9759;SDS011;4919;48.792;9.202;2022-07-09T04:06:44;7.23;;;3.87;;
9759;SDS011;4919;48.792;9.202;2022-07-09T04:09:11;8.73;;;4.10;;
9759;SDS011;4919;48.792;9.202;2022-07-09T04:11:38;7.90;;;3.57;;
9759;SDS011;4919;48.792;9.202;2022-07-09T04:14:05;6.80;;;3.57;;
9759;SDS011;4919;48.792;9.202;2022-07-09T04:16:32;7.57;;;3.70;;
9759;SDS011;4919;48.792;9.202;2022-07-09T04:18:59;6.57;;;3.83;;
9759;SDS011;4919;48.792;9.202;2022-07-09T04:21:25;7.43;;;3.83;;
9759;SDS011;4919;48.792;9.202;2022-07-09T04:23:52;5.57;;;3.43;;
9759;SDS011;4919;48.792;9.202;2022-07-09T04:26:19;7.07;;;3.43;;
9759;SDS011;4919;48.792;9.202;2022-07-09T04:28:46;7.63;;;3.53;;
9759;SDS011;4919;48.792;9.202;2022-07-09T04:31:13;8.27;;;3.83;;
9759;SDS011;4919;48.792;9.202;2022-07-09T04:33:42;7.53;;;3.17;;
9759;SDS011;4919;48.792;9.202;2022-07-09T04:36:10;8.83;;;3.57;;
9759;SDS011;4919;48.792;9.202;2022-07-09T04:38:37;10.33;;;3.60;;
9759;SDS011;4919;48.792;9.202;2022-07-09T04:41:04;4.10;;;2.80;;
9759;SDS011;4919;48.792;9.202;2022-07-09T04:43:31;6.07;;;3.10;;
9759;SDS011;4919;48.792;9.202;2022-07-09T04:45:59;6.10;;;2.87;;
9759;SDS011;4919;48.792;9.202;2022-07-09T04:48:26;8.13;;;3.57;;
9759;SDS011;4919;48.792;9.202;2022-07-09T04:50:53;6.33;;;3.07;;
9759;SDS011;4919;48.792;9.202;2022-07-09T04:53:20;6.60;;;2.87;;
9759;SDS011;4919;48.792;9.202;2022-07-09T04:55:47;5.00;;;3.00;;
9759;SDS011;4919;48.792;9.202;2022-07-09T04:58:14;5.03;;;3.10;;
9759;SDS011;4919;48.792;9.202;2022-07-09T05:00:40;4.87;;;3.00;;
9759;SDS011;4919;48.792;9.202;2022-07-09T05:03:08;6.73;;;3.20;;
9759;SDS011;4919;48.792;9.202;2022-07-09T05:05:35;8.33;;;3.57;;
9759;SDS011;4919;48.792;9.202;2022-07-09T05:08:13;7.37;;;3.67;;
9759;SDS011;4919;48.792;9.202;2022-07-09T05:10:40;7.20;;;3.33;;
9759;SDS011;4919;48.792;9.202;2022-07-09T05:13:07;5.47;;;3.13;;
9759;SDS011;4919;48.792;9.202;2022-07-09T05:15:34;9.00;;;3.40;;
9759;SDS011;4919;48.792;9.202;2022-07-09T05:18:01;7.27;;;3.33;;
9759;SDS011;4919;48.792;9.202;2022-07-09T05:20:28;5.43;;;3.20;;
9759;SDS011;4919;48.792;9.202;2022-07-09T05:22:55;6.50;;;3.10;;
9759;SDS011;4919;48.792;9.202;2022-07-09T05:25:22;7.93;;;3.37;;
9759;SDS011;4919;48.792;9.202;2022-07-09T05:27:49;6.37;;;3.60;;
9759;SDS011;4919;48.792;9.202;2022-07-09T05:30:16;9.27;;;3.70;;
9759;SDS011;4919;48.792;9.202;2022-07-09T05:32:45;5.00;;;3.10;;
9759;SDS011;4919;48.792;9.202;2022-07-09T05:35:13;7.87;;;3.10;;
9759;SDS011;4919;48.792;9.202;2022-07-09T05:37:40;6.20;;;3.67;;
9759;SDS011;4919;48.792;9.202;2022-07-09T05:40:09;6.40;;;3.17;;
9759;SDS011;4919;48.792;9.202;2022-07-09T05:42:37;9.77;;;4.03;;
9759;SDS011;4919;48.792;9.202;2022-07-09T05:45:05;5.30;;;3.20;;
9759;SDS011;4919;48.792;9.202;2022-07-09T05:47:32;9.20;;;3.47;;
9759;SDS011;4919;48.792;9.202;2022-07-09T05:50:00;9.03;;;3.47;;
9759;SDS011;4919;48.792;9.202;2022-07-09T05:52:26;10.13;;;3.77;;
9759;SDS011;4919;48.792;9.202;2022-07-09T05:54:53;7.23;;;3.70;;
9759;SDS011;4919;48.792;9.202;2022-07-09T05:57:20;8.00;;;3.33;;
9759;SDS011;4919;48.792;9.202;2022-07-09T05:59:47;6.70;;;3.37;;
9759;SDS011;4919;48.792;9.202;2022-07-09T06:02:14;7.33;;;3.77;;
9759;SDS011;4919;48.792;9.202;2022-07-09T06:04:41;5.53;;;3.30;;
9759;SDS011;4919;48.792;9.202;2022-07-09T06:07:08;5.53;;;3.30;;
9759;SDS011;4919;48.792;9.202;2022-07-09T06:09:35;6.37;;;3.37;;
9759;SDS011;4919;48.792;9.202;2022-07-09T06:12:03;6.53;;;3.10;;
9759;SDS011;4919;48.792;9.202;2022-07-09T06:14:30;8.97;;;3.67;;
9759;SDS011;4919;48.792;9.202;2022-07-09T06:16:57;7.20;;;3.57;;
9759;SDS011;4919;48.792;9.202;2022-07-09T06:19:27;7.90;;;3.70;;
9759;SDS011;4919;48.792;9.202;2022-07-09T06:21:54;7.73;;;3.60;;
9759;SDS011;4919;48.792;9.202;2022-07-09T06:24:21;6.97;;;3.50;;
9759;SDS011;4919;48.792;9.202;2022-07-09T06:26:50;6.27;;;4.03;;
9759;SDS011;4919;48.792;9.202;2022-07-09T06:29:17;5.97;;;3.53;;
9759;SDS011;4919;48.792;9.202;2022-07-09T06:31:43;7.27;;;3.50;;
9759;SDS011;4919;48.792;9.202;2022-07-09T06:34:10;8.70;;;3.63;;
9759;SDS011;4919;48.792;9.202;2022-07-09T06:36:38;8.43;;;3.43;;
9759;SDS011;4919;48.792;9.202;2022-07-09T06:39:06;7.23;;;3.87;;
9759;SDS011;4919;48.792;9.202;2022-07-09T06:41:51;7.67;;;3.43;;
9759;SDS011;4919;48.792;9.202;2022-07-09T06:44:18;7.00;;;3.43;;
9759;SDS011;4919;48.792;9.202;2022-07-09T06:46:45;7.53;;;3.07;;
9759;SDS011;4919;48.792;9.202;2022-07-09T06:49:12;8.40;;;3.20;;
9759;SDS011;4919;48.792;9.202;2022-07-09T06:51:39;6.47;;;3.50;;
9759;SDS011;4919;48.792;9.202;2022-07-09T06:54:06;6.87;;;3.60;;
9759;SDS011;4919;48.792;9.202;2022-07-09T06:56:32;6.97;;;3.00;;
9759;SDS011;4919;48.792;9.202;2022-07-09T06:58:59;5.17;;;2.80;;
9759;SDS011;4919;48.792;9.202;2022-07-09T07:01:26;8.57;;;2.87;;
9759;SDS011;4919;48.792;9.202;2022-07-09T07:03:53;6.23;;;2.93;;
9759;SDS011;4919;48.792;9.202;2022-07-09T07:06:20;6.20;;;3.10;;
9759;SDS011;4919;48.792;9.202;2022-07-09T07:08:47;7.03;;;3.40;;
9759;SDS011;4919;48.792;9.202;2022-07-09T07:11:13;9.13;;;3.30;;
9759;SDS011;4919;48.792;9.202;2022-07-09T07:13:40;6.17;;;2.90;;
9759;SDS011;4919;48.792;9.202;2022-07-09T07:16:08;6.10;;;3.10;;
9759;SDS011;4919;48.792;9.202;2022-07-09T07:18:35;6.37;;;3.10;;
9759;SDS011;4919;48.792;9.202;2022-07-09T07:21:02;8.20;;;3.30;;
9759;SDS011;4919;48.792;9.202;2022-07-09T07:23:29;8.00;;;3.20;;
9759;SDS011;4919;48.792;9.202;2022-07-09T07:25:59;5.47;;;3.03;;
9759;SDS011;4919;48.792;9.202;2022-07-09T07:28:27;7.93;;;2.80;;
9759;SDS011;4919;48.792;9.202;2022-07-09T07:30:54;5.37;;;2.70;;
9759;SDS011;4919;48.792;9.202;2022-07-09T07:33:21;4.57;;;2.80;;
9759;SDS011;4919;48.792;9.202;2022-07-09T07:35:48;5.00;;;2.60;;
9759;SDS011;4919;48.792;9.202;2022-07-09T07:38:14;5.07;;;2.80;;
9759;SDS011;4919;48.792;9.202;2022-07-09T07:40:41;5.07;;;2.77;;
9759;SDS011;4919;48.792;9.202;2022-07-09T07:43:11;5.57;;;2.60;;
9759;SDS011;4919;48.792;9.202;2022-07-09T07:45:38;6.70;;;2.90;;
9759;SDS011;4919;48.792;9.202;2022-07-09T07:48:06;6.43;;;2.63;;
9759;SDS011;4919;48.792;9.202;2022-07-09T07:50:33;4.10;;;2.47;;
9759;SDS011;4919;48.792;9.202;2022-07-09T07:53:05;3.57;;;2.30;;
9759;SDS011;4919;48.792;9.202;2022-07-09T07:55:33;5.03;;;2.27;;
9759;SDS011;4919;48.792;9.202;2022-07-09T07:58:00;5.80;;;2.37;;
9759;SDS011;4919;48.792;9.202;2022-07-09T08:00:27;3.23;;;2.10;;
9759;SDS011;4919;48.792;9.202;2022-07-09T08:02:54;4.23;;;2.37;;
9759;SDS011;4919;48.792;9.202;2022-07-09T08:05:21;4.80;;;2.40;;
9759;SDS011;4919;48.792;9.202;2022-07-09T08:07:48;2.70;;;2.40;;
9759;SDS011;4919;48.792;9.202;2022-07-09T08:10:15;6.23;;;2.90;;
9759;SDS011;4919;48.792;9.202;2022-07-09T08:12:42;4.07;;;2.43;;
9759;SDS011;4919;48.792;9.202;2022-07-09T08:15:09;3.10;;;2.33;;
9759;SDS011;4919;48.792;9.202;2022-07-09T08:17:36;5.37;;;2.37;;
9759;SDS011;4919;48.792;9.202;2022-07-09T08:20:04;4.50;;;2.50;;
9759;SDS011;4919;48.792;9.202;2022-07-09T08:22:31;4.50;;;2.67;;
9759;SDS011;4919;48.792;9.202;2022-07-09T08:24:58;5.50;;;2.63;;
9759;SDS011;4919;48.792;9.202;2022-07-09T08:27:25;5.33;;;2.60;;
9759;SDS011;4919;48.792;9.202;2022-07-09T08:29:52;5.30;;;2.70;;
9759;SDS011;4919;48.792;9.202;2022-07-09T08:32:18;6.23;;;2.93;;
9759;SDS011;4919;48.792;9.202;2022-07-09T08:34:45;5.17;;;2.90;;
9759;SDS011;4919;48.792;9.202;2022-07-09T08:37:12;7.67;;;2.93;;
9759;SDS011;4919;48.792;9.202;2022-07-09T08:39:39;8.17;;;3.27;;
9759;SDS011;4919;48.792;9.202;2022-07-09T08:42:09;5.67;;;2.83;;
9759;SDS011;4919;48.792;9.202;2022-07-09T08:44:40;5.10;;;2.90;;
9759;SDS011;4919;48.792;9.202;2022-07-09T08:47:12;7.77;;;3.23;;
9759;SDS011;4919;48.792;9.202;2022-07-09T08:49:41;6.37;;;3.40;;
9759;SDS011;4919;48.792;9.202;2022-07-09T08:52:09;5.53;;;2.77;;
9759;SDS011;4919;48.792;9.202;2022-07-09T08:54:37;5.50;;;3.10;;
9759;SDS011;4919;48.792;9.202;2022-07-09T08:57:04;5.90;;;2.70;;
9759;SDS011;4919;48.792;9.202;2022-07-09T08:59:32;4.77;;;2.83;;
9759;SDS011;4919;48.792;9.202;2022-07-09T09:02:03;6.80;;;3.00;;
9759;SDS011;4919;48.792;9.202;2022-07-09T09:04:31;6.40;;;3.00;;
9759;SDS011;4919;48.792;9.202;2022-07-09T09:07:13;5.47;;;3.10;;
9759;SDS011;4919;48.792;9.202;2022-07-09T09:09:42;6.73;;;3.10;;
9759;SDS011;4919;48.792;9.202;2022-07-09T09:12:09;6.43;;;2.67;;
9759;SDS011;4919;48.792;9.202;2022-07-09T09:14:36;3.00;;;2.40;;
9759;SDS011;4919;48.792;9.202;2022-07-09T09:17:04;5.73;;;2.93;;
9759;SDS011;4919;48.792;9.202;2022-07-09T09:19:40;4.40;;;2.70;;
9759;SDS011;4919;48.792;9.202;2022-07-09T09:22:07;5.47;;;2.97;;
9759;SDS011;4919;48.792;9.202;2022-07-09T09:24:35;6.73;;;2.80;;
9759;SDS011;4919;48.792;9.202;2022-07-09T09:27:02;5.20;;;2.60;;
9759;SDS011;4919;48.792;9.202;2022-07-09T09:29:29;4.80;;;2.57;;
9759;SDS011;4919;48.792;9.202;2022-07-09T09:31:56;3.73;;;2.70;;
9759;SDS011;4919;48.792;9.202;2022-07-09T09:34:23;7.40;;;3.03;;
9759;SDS011;4919;48.792;9.202;2022-07-09T09:36:51;5.87;;;2.83;;
9759;SDS011;4919;48.792;9.202;2022-07-09T09:39:24;3.97;;;2.80;;
9759;SDS011;4919;48.792;9.202;2022-07-09T09:41:53;3.77;;;2.60;;
9759;SDS011;4919;48.792;9.202;2022-07-09T09:44:29;5.20;;;2.97;;
9759;SDS011;4919;48.792;9.202;2022-07-09T09:47:04;4.83;;;2.83;;
9759;SDS011;4919;48.792;9.202;2022-07-09T09:49:31;4.23;;;2.90;;
9759;SDS011;4919;48.792;9.202;2022-07-09T09:54:34;6.03;;;3.07;;
9759;SDS011;4919;48.792;9.202;2022-07-09T09:57:06;6.53;;;3.43;;
9759;SDS011;4919;48.792;9.202;2022-07-09T09:59:35;6.93;;;3.30;;
9759;SDS011;4919;48.792;9.202;2022-07-09T10:02:04;6.23;;;3.70;;
9759;SDS011;4919;48.792;9.202;2022-07-09T10:04:39;6.37;;;3.50;;
9759;SDS011;4919;48.792;9.202;2022-07-09T10:07:07;8.13;;;3.80;;
9759;SDS011;4919;48.792;9.202;2022-07-09T10:09:36;6.80;;;4.17;;
9759;SDS011;4919;48.792;9.202;2022-07-09T10:12:03;6.13;;;3.83;;
9759;SDS011;4919;48.792;9.202;2022-07-09T10:14:32;6.87;;;4.17;;
9759;SDS011;4919;48.792;9.202;2022-07-09T10:17:10;4.97;;;3.60;;
9759;SDS011;4919;48.792;9.202;2022-07-09T10:19:54;4.90;;;3.77;;
9759;SDS011;4919;48.792;9.202;2022-07-09T10:22:38;7.47;;;3.90;;
9759;SDS011;4919;48.792;9.202;2022-07-09T10:25:07;6.67;;;3.80;;
9759;SDS011;4919;48.792;9.202;2022-07-09T10:27:42;5.40;;;3.20;;
9759;SDS011;4919;48.792;9.202;2022-07-09T10:33:03;5.20;;;3.20;;
9759;SDS011;4919;48.792;9.202;2022-07-09T10:38:07;4.97;;;3.00;;
9759;SDS011;4919;48.792;9.202;2022-07-09T10:41:20;6.77;;;3.20;;
9759;SDS011;4919;48.792;9.202;2022-07-09T10:43:41;5.77;;;3.07;;
9759;SDS011;4919;48.792;9.202;2022-07-09T10:46:13;4.13;;;2.80;;
9759;SDS011;4919;48.792;9.202;2022-07-09T10:48:41;3.77;;;2.80;;
9759;SDS011;4919;48.792;9.202;2022-07-09T10:51:20;6.10;;;3.00;;
9759;SDS011;4919;48.792;9.202;2022-07-09T10:53:48;4.37;;;2.97;;
9759;SDS011;4919;48.792;9.202;2022-07-09T10:56:17;4.37;;;2.70;;
9759;SDS011;4919;48.792;9.202;2022-07-09T10:58:45;4.83;;;2.60;;
9759;SDS011;4919;48.792;9.202;2022-07-09T11:01:18;5.43;;;2.43;;
9759;SDS011;4919;48.792;9.202;2022-07-09T11:03:48;4.13;;;2.23;;
9759;SDS011;4919;48.792;9.202;2022-07-09T11:06:17;4.40;;;2.27;;
9759;SDS011;4919;48.792;9.202;2022-07-09T11:08:44;4.37;;;2.60;;
9759;SDS011;4919;48.792;9.202;2022-07-09T11:11:11;4.30;;;2.20;;
9759;SDS011;4919;48.792;9.202;2022-07-09T11:13:38;3.63;;;2.30;;
9759;SDS011;4919;48.792;9.202;2022-07-09T11:16:05;4.73;;;2.30;;
9759;SDS011;4919;48.792;9.202;2022-07-09T11:18:32;2.87;;;2.07;;
9759;SDS011;4919;48.792;9.202;2022-07-09T11:21:00;3.87;;;2.17;;
9759;SDS011;4919;48.792;9.202;2022-07-09T11:23:27;4.33;;;2.20;;
9759;SDS011;4919;48.792;9.202;2022-07-09T11:25:53;2.60;;;2.00;;
9759;SDS011;4919;48.792;9.202;2022-07-09T11:28:21;5.40;;;2.63;;
9759;SDS011;4919;48.792;9.202;2022-07-09T11:31:02;3.40;;;2.23;;
9759;SDS011;4919;48.792;9.202;2022-07-09T11:33:30;2.63;;;2.10;;
9759;SDS011;4919;48.792;9.202;2022-07-09T11:36:17;4.30;;;2.20;;
9759;SDS011;4919;48.792;9.202;2022-07-09T11:38:51;2.87;;;2.10;;
9759;SDS011;4919;48.792;9.202;2022-07-09T11:41:19;3.00;;;1.90;;
9759;SDS011;4919;48.792;9.202;2022-07-09T11:43:47;3.63;;;2.10;;
9759;SDS011;4919;48.792;9.202;2022-07-09T11:46:18;2.33;;;1.90;;
9759;SDS011;4919;48.792;9.202;2022-07-09T11:48:52;2.90;;;2.00;;
9759;SDS011;4919;48.792;9.202;2022-07-09T11:51:27;3.40;;;1.90;;
9759;SDS011;4919;48.792;9.202;2022-07-09T11:53:58;5.10;;;2.30;;
9759;SDS011;4919;48.792;9.202;2022-07-09T11:56:44;3.00;;;2.13;;
9759;SDS011;4919;48.792;9.202;2022-07-09T11:59:12;5.43;;;1.93;;
9759;SDS011;4919;48.792;9.202;2022-07-09T12:01:39;3.37;;;2.07;;
9759;SDS011;4919;48.792;9.202;2022-07-09T12:04:06;2.13;;;1.90;;
9759;SDS011;4919;48.792;9.202;2022-07-09T12:06:46;2.40;;;1.80;;
9759;SDS011;4919;48.792;9.202;2022-07-09T12:09:14;3.40;;;2.00;;
9759;SDS011;4919;48.792;9.202;2022-07-09T12:11:42;2.50;;;1.87;;
9759;SDS011;4919;48.792;9.202;2022-07-09T12:14:09;4.07;;;2.20;;
9759;SDS011;4919;48.792;9.202;2022-07-09T12:16:38;3.93;;;2.13;;
9759;SDS011;4919;48.792;9.202;2022-07-09T12:19:05;3.77;;;1.90;;
9759;SDS011;4919;48.792;9.202;2022-07-09T12:21:31;3.23;;;1.97;;
9759;SDS011;4919;48.792;9.202;2022-07-09T12:23:58;2.77;;;2.10;;
9759;SDS011;4919;48.792;9.202;2022-07-09T12:26:25;2.23;;;1.80;;
9759;SDS011;4919;48.792;9.202;2022-07-09T12:28:52;4.33;;;2.17;;
9759;SDS011;4919;48.792;9.202;2022-07-09T12:31:23;2.73;;;2.00;;
9759;SDS011;4919;48.792;9.202;2022-07-09T12:33:50;2.77;;;1.90;;
9759;SDS011;4919;48.792;9.202;2022-07-09T12:36:17;2.83;;;1.80;;
9759;SDS011;4919;48.792;9.202;2022-07-09T12:39:03;2.53;;;1.70;;
9759;SDS011;4919;48.792;9.202;2022-07-09T12:41:30;2.93;;;1.80;;
9759;SDS011;4919;48.792;9.202;2022-07-09T12:43:57;2.37;;;1.97;;
9759;SDS011;4919;48.792;9.202;2022-07-09T12:46:24;2.80;;;1.80;;
9759;SDS011;4919;48.792;9.202;2022-07-09T12:48:51;2.87;;;1.80;;
9759;SDS011;4919;48.792;9.202;2022-07-09T12:51:18;1.93;;;1.60;;
9759;SDS011;4919;48.792;9.202;2022-07-09T12:53:44;2.77;;;1.70;;
9759;SDS011;4919;48.792;9.202;2022-07-09T12:56:11;1.90;;;1.70;;
9759;SDS011;4919;48.792;9.202;2022-07-09T12:58:44;2.60;;;1.90;;
9759;SDS011;4919;48.792;9.202;2022-07-09T13:01:11;3.10;;;1.80;;
9759;SDS011;4919;48.792;9.202;2022-07-09T13:03:38;3.37;;;2.10;;
9759;SDS011;4919;48.792;9.202;2022-07-09T13:06:25;3.13;;;2.17;;
9759;SDS011;4919;48.792;9.202;2022-07-09T13:08:58;3.00;;;2.00;;
9759;SDS011;4919;48.792;9.202;2022-07-09T13:11:27;3.53;;;2.20;;
9759;SDS011;4919;48.792;9.202;2022-07-09T13:13:54;3.27;;;2.27;;
9759;SDS011;4919;48.792;9.202;2022-07-09T13:16:21;4.50;;;2.30;;
9759;SDS011;4919;48.792;9.202;2022-07-09T13:18:48;2.97;;;2.40;;
9759;SDS011;4919;48.792;9.202;2022-07-09T13:21:17;3.60;;;2.10;;
9759;SDS011;4919;48.792;9.202;2022-07-09T13:23:45;3.50;;;2.50;;
9759;SDS011;4919;48.792;9.202;2022-07-09T13:26:17;3.33;;;2.23;;
9759;SDS011;4919;48.792;9.202;2022-07-09T13:28:43;3.00;;;2.33;;
9759;SDS011;4919;48.792;9.202;2022-07-09T13:31:10;2.87;;;2.00;;
9759;SDS011;4919;48.792;9.202;2022-07-09T13:33:37;5.17;;;2.67;;
9759;SDS011;4919;48.792;9.202;2022-07-09T13:36:04;3.53;;;2.50;;
9759;SDS011;4919;48.792;9.202;2022-07-09T13:38:32;3.43;;;2.67;;
9759;SDS011;4919;48.792;9.202;2022-07-09T13:41:00;3.73;;;2.50;;
9759;SDS011;4919;48.792;9.202;2022-07-09T13:43:27;3.73;;;2.70;;
9759;SDS011;4919;48.792;9.202;2022-07-09T13:46:01;5.73;;;2.93;;
9759;SDS011;4919;48.792;9.202;2022-07-09T13:48:30;3.57;;;2.67;;
9759;SDS011;4919;48.792;9.202;2022-07-09T13:50:58;5.13;;;2.97;;
9759;SDS011;4919;48.792;9.202;2022-07-09T13:53:25;3.80;;;2.50;;
9759;SDS011;4919;48.792;9.202;2022-07-09T13:55:54;3.40;;;2.47;;
9759;SDS011;4919;48.792;9.202;2022-07-09T13:58:21;4.10;;;2.67;;
9759;SDS011;4919;48.792;9.202;2022-07-09T14:00:48;3.87;;;2.60;;
9759;SDS011;4919;48.792;9.202;2022-07-09T14:03:15;4.67;;;2.40;;
9759;SDS011;4919;48.792;9.202;2022-07-09T14:05:43;2.83;;;2.43;;
9759;SDS011;4919;48.792;9.202;2022-07-09T14:08:10;3.27;;;2.50;;
9759;SDS011;4919;48.792;9.202;2022-07-09T14:10:43;2.37;;;2.17;;
9759;SDS011;4919;48.792;9.202;2022-07-09T14:13:10;3.30;;;2.50;;
9759;SDS011;4919;48.792;9.202;2022-07-09T14:15:37;3.60;;;2.30;;
9759;SDS011;4919;48.792;9.202;2022-07-09T14:18:04;2.93;;;2.30;;
9759;SDS011;4919;48.792;9.202;2022-07-09T14:20:31;2.83;;;2.30;;
9759;SDS011;4919;48.792;9.202;2022-07-09T14:22:58;3.77;;;3.00;;
9759;SDS011;4919;48.792;9.202;2022-07-09T14:25:25;3.33;;;2.40;;
9759;SDS011;4919;48.792;9.202;2022-07-09T14:27:52;3.40;;;2.30;;
9759;SDS011;4919;48.792;9.202;2022-07-09T14:30:20;3.60;;;2.60;;
9759;SDS011;4919;48.792;9.202;2022-07-09T14:32:46;2.90;;;2.20;;
9759;SDS011;4919;48.792;9.202;2022-07-09T14:35:13;3.97;;;2.10;;
9759;SDS011;4919;48.792;9.202;2022-07-09T14:37:41;2.47;;;1.97;;
9759;SDS011;4919;48.792;9.202;2022-07-09T14:40:08;3.80;;;2.10;;
9759;SDS011;4919;48.792;9.202;2022-07-09T14:42:35;2.00;;;1.80;;
9759;SDS011;4919;48.792;9.202;2022-07-09T14:45:02;2.17;;;1.97;;
9759;SDS011;4919;48.792;9.202;2022-07-09T14:47:30;3.03;;;1.63;;
9759;SDS011;4919;48.792;9.202;2022-07-09T14:49:57;1.90;;;1.50;;
9759;SDS011;4919;48.792;9.202;2022-07-09T14:52:23;2.67;;;1.50;;
9759;SDS011;4919;48.792;9.202;2022-07-09T14:54:50;3.20;;;1.50;;
9759;SDS011;4919;48.792;9.202;2022-07-09T14:57:17;1.77;;;1.50;;
9759;SDS011;4919;48.792;9.202;2022-07-09T14:59:44;1.40;;;1.30;;
9759;SDS011;4919;48.792;9.202;2022-07-09T15:02:11;1.93;;;1.47;;
9759;SDS011;4919;48.792;9.202;2022-07-09T15:04:38;1.70;;;1.60;;
9759;SDS011;4919;48.792;9.202;2022-07-09T15:07:05;1.97;;;1.57;;
9759;SDS011;4919;48.792;9.202;2022-07-09T15:09:32;2.17;;;1.50;;
9759;SDS011;4919;48.792;9.202;2022-07-09T15:11:59;4.00;;;1.60;;
9759;SDS011;4919;48.792;9.202;2022-07-09T15:14:26;2.93;;;1.50;;
9759;SDS011;4919;48.792;9.202;2022-07-09T15:16:53;1.77;;;1.50;;
9759;SDS011;4919;48.792;9.202;2022-07-09T15:19:20;2.10;;;1.63;;
9759;SDS011;4919;48.792;9.202;2022-07-09T15:21:47;2.37;;;1.70;;
9759;SDS011;4919;48.792;9.202;2022-07-09T15:24:13;1.90;;;1.53;;
9759;SDS011;4919;48.792;9.202;2022-07-09T15:26:40;1.77;;;1.50;;
9759;SDS011;4919;48.792;9.202;2022-07-09T15:29:07;3.97;;;1.77;;